createdAt,value
2023-04-03T00:00:09.660Z,103446.06
2023-04-03T00:10:31.171Z,103455.94
2023-04-03T00:20:52.554Z,103468.53
2023-04-03T00:31:15.528Z,103462.97
2023-04-03T00:41:36.952Z,103464.34
2023-04-03T00:51:58.914Z,103464.09
2023-04-03T01:02:20.390Z,103447.53
2023-04-03T01:12:46.485Z,103453.28
2023-04-03T01:23:14.610Z,103466.47
2023-04-03T01:33:36.587Z,103476.13
2023-04-03T01:43:58.026Z,103469.75
2023-04-03T01:54:19.402Z,103489.38
2023-04-03T02:04:41.270Z,103490.66
2023-04-03T02:15:02.666Z,103510.06
2023-04-03T02:25:24.008Z,103495.25
2023-04-03T02:35:47.326Z,103512.75
2023-04-03T02:46:08.770Z,103519.19
2023-04-03T02:56:30.526Z,103517.22
2023-04-03T03:06:51.887Z,103527.16
2023-04-03T03:17:13.236Z,103525.16
2023-04-03T03:27:34.652Z,103533.66
2023-04-03T03:37:56.168Z,103529.84
2023-04-03T03:48:17.539Z,103529.56
2023-04-03T03:58:38.926Z,103523.38
2023-04-03T04:09:00.303Z,103543.59
2023-04-03T04:19:21.744Z,103535.56
2023-04-03T04:29:48.561Z,103556.00
2023-04-03T04:50:41.334Z,103572.69
2023-04-03T05:01:07.059Z,103562.16
2023-04-03T05:11:28.432Z,103569.81
2023-04-03T05:21:49.793Z,103581.78
2023-04-03T05:32:11.866Z,103583.53
2023-04-03T05:42:33.620Z,103592.28
2023-04-03T05:52:57.250Z,103619.69
2023-04-03T06:03:18.806Z,103619.94
2023-04-03T06:13:40.340Z,103628.41
2023-04-03T06:24:01.946Z,103636.03
2023-04-03T06:34:23.367Z,103643.44
2023-04-03T06:44:44.819Z,103654.53
2023-04-03T06:55:06.373Z,103655.19
2023-04-03T07:05:27.736Z,103657.38
2023-04-03T07:15:49.245Z,103667.69
2023-04-03T07:26:10.648Z,103678.94
2023-04-03T07:36:34.336Z,103677.41
2023-04-03T07:46:58.711Z,103692.72
2023-04-03T07:57:20.080Z,103689.97
2023-04-03T08:07:41.458Z,103680.03
2023-04-03T08:18:02.904Z,103681.69
2023-04-03T08:28:24.302Z,103672.16
2023-04-03T08:38:46.013Z,103675.13
2023-04-03T08:49:15.827Z,103673.03
2023-04-03T08:59:39.591Z,103670.56
2023-04-03T09:10:03.889Z,103659.28
2023-04-03T09:20:48.618Z,103652.00
2023-04-03T09:31:17.733Z,103645.00
2023-04-03T09:41:39.191Z,103641.47
2023-04-03T09:52:19.400Z,103624.91
2023-04-03T10:02:41.248Z,103623.47
2023-04-03T10:13:24.128Z,103623.09
2023-04-03T10:23:50.961Z,103619.16
2023-04-03T10:34:30.683Z,103610.97
2023-04-03T10:44:58.441Z,103602.88
2023-04-03T10:55:38.267Z,103590.31
2023-04-03T11:06:02.595Z,103583.84
2023-04-03T11:16:30.612Z,103559.34
2023-04-03T11:26:54.816Z,103538.47
2023-04-03T11:37:16.157Z,103533.00
2023-04-03T11:47:48.568Z,103524.78
2023-04-03T11:58:16.141Z,103507.72
2023-04-03T12:08:40.521Z,103500.41
2023-04-03T12:19:04.313Z,103489.44
2023-04-03T12:29:29.653Z,103465.81
2023-04-03T12:40:01.410Z,103452.63
2023-04-03T12:50:30.928Z,103440.84
2023-04-03T13:01:05.470Z,103434.94
2023-04-03T13:11:29.296Z,103424.56
2023-04-03T13:21:53.998Z,103413.53
2023-04-03T13:32:19.077Z,103402.69
2023-04-03T13:42:44.408Z,103406.28
2023-04-03T13:53:15.319Z,103395.84
2023-04-03T14:03:42.940Z,103386.41
2023-04-03T14:14:10.974Z,103367.34
2023-04-03T14:24:33.071Z,103361.50
2023-04-03T14:34:54.534Z,103365.78
2023-04-03T14:45:16.752Z,103368.00
2023-04-03T14:55:38.124Z,103357.31
2023-04-03T15:06:00.198Z,103349.59
2023-04-03T15:16:22.225Z,103332.06
2023-04-03T15:26:43.717Z,103335.22
2023-04-03T15:37:05.301Z,103323.28
2023-04-03T15:47:27.643Z,103313.28
2023-04-03T15:57:49.130Z,103304.84
2023-04-03T16:08:10.739Z,103303.19
2023-04-03T16:18:32.568Z,103304.16
2023-04-03T16:28:54.780Z,103295.72
2023-04-03T16:39:16.850Z,103285.41
2023-04-03T16:49:39.588Z,103292.03
2023-04-03T17:00:01.066Z,103305.50
2023-04-03T17:10:22.590Z,103301.66
2023-04-03T17:20:43.948Z,103291.66
2023-04-03T17:31:05.405Z,103307.16
2023-04-03T17:41:28.601Z,103317.13
2023-04-03T17:51:49.989Z,103325.41
2023-04-03T18:02:11.421Z,103334.47
2023-04-03T18:12:32.922Z,103332.31
2023-04-03T18:22:54.273Z,103339.59
2023-04-03T18:33:15.657Z,103339.25
2023-04-03T18:43:37.250Z,103342.22
2023-04-03T18:53:58.616Z,103348.78
2023-04-03T19:04:20.263Z,103360.38
2023-04-03T19:14:41.701Z,103359.91
2023-04-03T19:25:04.150Z,103359.56
2023-04-03T19:35:25.516Z,103359.28
2023-04-03T19:45:46.955Z,103362.50
2023-04-03T19:56:08.348Z,103353.59
2023-04-03T20:06:29.707Z,103346.38
2023-04-03T20:16:51.108Z,103341.97
2023-04-03T20:27:12.459Z,103340.94
2023-04-03T20:37:33.913Z,103335.53
2023-04-03T20:47:55.503Z,103335.38
2023-04-03T20:58:18.045Z,103333.41
2023-04-03T21:09:01.220Z,103338.25
2023-04-03T21:19:22.581Z,103342.81
2023-04-03T21:29:44.936Z,103350.03
2023-04-03T21:40:07.920Z,103356.47
2023-04-03T21:50:29.296Z,103350.06
2023-04-03T22:00:51.009Z,103358.22
2023-04-03T22:11:13.943Z,103353.56
2023-04-03T22:21:35.364Z,103352.41
2023-04-03T22:31:56.827Z,103360.66
2023-04-03T22:42:18.249Z,103360.22
2023-04-03T22:52:40.376Z,103363.44
2023-04-03T23:03:01.852Z,103363.84
2023-04-03T23:13:23.884Z,103354.09
2023-04-03T23:23:45.245Z,103369.19
2023-04-03T23:34:06.590Z,103372.13
2023-04-03T23:44:27.917Z,103359.00
2023-04-03T23:54:50.322Z,103353.53
